sensor_id;sensor_type;location;lat;lon;timestamp;temperature;humidity
2391;DHT22;22957;50.824;4.360;2023-05-27T00:00:58;13.30;99.90
2391;DHT22;22957;50.824;4.360;2023-05-27T00:03:24;13.30;99.90
2391;DHT22;22957;50.824;4.360;2023-05-27T00:05:49;13.70;99.90
2391;DHT22;22957;50.824;4.360;2023-05-27T00:08:15;13.60;99.90
2391;DHT22;22957;50.824;4.360;2023-05-27T00:10:41;13.40;99.90
2391;DHT22;22957;50.824;4.360;2023-05-27T00:13:06;13.50;99.90
2391;DHT22;22957;50.824;4.360;2023-05-27T00:15:32;13.40;99.90
2391;DHT22;22957;50.824;4.360;2023-05-27T00:17:58;13.20;99.90
2391;DHT22;22957;50.824;4.360;2023-05-27T00:20:27;12.90;99.90
2391;DHT22;22957;50.824;4.360;2023-05-27T00:22:55;12.60;99.90
2391;DHT22;22957;50.824;4.360;2023-05-27T00:25:22;12.50;99.90
2391;DHT22;22957;50.824;4.360;2023-05-27T00:27:48;12.60;99.90
2391;DHT22;22957;50.824;4.360;2023-05-27T00:30:15;12.90;99.90
2391;DHT22;22957;50.824;4.360;2023-05-27T00:32:41;13.00;99.90
2391;DHT22;22957;50.824;4.360;2023-05-27T00:35:07;12.40;99.90
2391;DHT22;22957;50.824;4.360;2023-05-27T00:37:33;12.40;99.90
2391;DHT22;22957;50.824;4.360;2023-05-27T00:39:59;12.60;99.90
2391;DHT22;22957;50.824;4.360;2023-05-27T00:42:25;12.80;99.90
2391;DHT22;22957;50.824;4.360;2023-05-27T00:44:50;12.70;99.90
2391;DHT22;22957;50.824;4.360;2023-05-27T00:47:16;12.70;99.90
2391;DHT22;22957;50.824;4.360;2023-05-27T00:49:43;12.80;99.90
2391;DHT22;22957;50.824;4.360;2023-05-27T00:52:09;12.90;99.90
2391;DHT22;22957;50.824;4.360;2023-05-27T00:54:35;13.30;99.90
2391;DHT22;22957;50.824;4.360;2023-05-27T00:57:00;13.00;99.90
2391;DHT22;22957;50.824;4.360;2023-05-27T00:59:28;12.60;99.90
2391;DHT22;22957;50.824;4.360;2023-05-27T01:01:54;12.70;99.90
2391;DHT22;22957;50.824;4.360;2023-05-27T01:04:20;12.60;99.90
2391;DHT22;22957;50.824;4.360;2023-05-27T01:06:58;12.90;99.90
2391;DHT22;22957;50.824;4.360;2023-05-27T01:09:36;12.90;99.90
2391;DHT22;22957;50.824;4.360;2023-05-27T01:14:57;12.20;99.90
2391;DHT22;22957;50.824;4.360;2023-05-27T01:17:24;11.90;99.90
2391;DHT22;22957;50.824;4.360;2023-05-27T01:19:52;12.20;99.90
2391;DHT22;22957;50.824;4.360;2023-05-27T01:22:19;12.20;99.90
2391;DHT22;22957;50.824;4.360;2023-05-27T01:24:45;12.20;99.90
2391;DHT22;22957;50.824;4.360;2023-05-27T01:27:11;12.60;99.90
2391;DHT22;22957;50.824;4.360;2023-05-27T01:29:38;12.70;99.90
2391;DHT22;22957;50.824;4.360;2023-05-27T01:34:43;12.30;99.90
2391;DHT22;22957;50.824;4.360;2023-05-27T01:37:13;12.20;99.90
2391;DHT22;22957;50.824;4.360;2023-05-27T01:39:41;12.00;99.90
2391;DHT22;22957;50.824;4.360;2023-05-27T01:42:08;12.70;99.90
2391;DHT22;22957;50.824;4.360;2023-05-27T01:44:34;11.90;99.90
2391;DHT22;22957;50.824;4.360;2023-05-27T01:47:01;11.60;99.90
2391;DHT22;22957;50.824;4.360;2023-05-27T01:49:27;11.60;99.90
2391;DHT22;22957;50.824;4.360;2023-05-27T01:51:53;11.50;99.90
2391;DHT22;22957;50.824;4.360;2023-05-27T01:54:19;11.80;99.90
2391;DHT22;22957;50.824;4.360;2023-05-27T01:56:45;11.30;99.90
2391;DHT22;22957;50.824;4.360;2023-05-27T01:59:10;11.50;99.90
2391;DHT22;22957;50.824;4.360;2023-05-27T02:01:36;11.30;99.90
2391;DHT22;22957;50.824;4.360;2023-05-27T02:04:02;11.30;99.90
2391;DHT22;22957;50.824;4.360;2023-05-27T02:06:29;11.20;99.90
2391;DHT22;22957;50.824;4.360;2023-05-27T02:08:55;11.80;99.90
2391;DHT22;22957;50.824;4.360;2023-05-27T02:11:20;11.30;99.90
2391;DHT22;22957;50.824;4.360;2023-05-27T02:13:46;11.50;99.90
2391;DHT22;22957;50.824;4.360;2023-05-27T02:16:12;11.40;99.90
2391;DHT22;22957;50.824;4.360;2023-05-27T02:18:40;11.30;99.90
2391;DHT22;22957;50.824;4.360;2023-05-27T02:21:06;11.50;99.90
2391;DHT22;22957;50.824;4.360;2023-05-27T02:23:33;11.10;99.90
2391;DHT22;22957;50.824;4.360;2023-05-27T02:25:58;11.30;99.90
2391;DHT22;22957;50.824;4.360;2023-05-27T02:28:24;11.10;99.90
2391;DHT22;22957;50.824;4.360;2023-05-27T02:30:49;12.10;99.90
2391;DHT22;22957;50.824;4.360;2023-05-27T02:33:15;11.60;99.90
2391;DHT22;22957;50.824;4.360;2023-05-27T02:35:40;11.60;99.90
2391;DHT22;22957;50.824;4.360;2023-05-27T02:38:06;11.40;99.90
2391;DHT22;22957;50.824;4.360;2023-05-27T02:40:31;11.50;99.90
2391;DHT22;22957;50.824;4.360;2023-05-27T02:42:57;10.80;99.90
2391;DHT22;22957;50.824;4.360;2023-05-27T02:45:23;11.10;99.90
2391;DHT22;22957;50.824;4.360;2023-05-27T02:47:49;10.90;99.90
2391;DHT22;22957;50.824;4.360;2023-05-27T02:50:15;10.70;99.90
2391;DHT22;22957;50.824;4.360;2023-05-27T02:52:41;10.90;99.90
2391;DHT22;22957;50.824;4.360;2023-05-27T02:55:07;11.10;99.90
2391;DHT22;22957;50.824;4.360;2023-05-27T02:57:33;10.90;99.90
2391;DHT22;22957;50.824;4.360;2023-05-27T02:59:59;11.10;99.90
2391;DHT22;22957;50.824;4.360;2023-05-27T03:02:24;11.00;99.90
2391;DHT22;22957;50.824;4.360;2023-05-27T03:04:50;11.00;99.90
2391;DHT22;22957;50.824;4.360;2023-05-27T03:07:15;10.70;99.90
2391;DHT22;22957;50.824;4.360;2023-05-27T03:09:41;11.00;99.90
2391;DHT22;22957;50.824;4.360;2023-05-27T03:12:06;10.90;99.90
2391;DHT22;22957;50.824;4.360;2023-05-27T03:14:32;10.30;99.90
2391;DHT22;22957;50.824;4.360;2023-05-27T03:16:58;10.80;99.90
2391;DHT22;22957;50.824;4.360;2023-05-27T03:19:24;10.80;99.90
2391;DHT22;22957;50.824;4.360;2023-05-27T03:21:50;10.80;99.90
2391;DHT22;22957;50.824;4.360;2023-05-27T03:24:18;11.20;99.90
2391;DHT22;22957;50.824;4.360;2023-05-27T03:26:44;11.20;99.90
2391;DHT22;22957;50.824;4.360;2023-05-27T03:29:09;10.30;99.90
2391;DHT22;22957;50.824;4.360;2023-05-27T03:31:35;11.00;99.90
2391;DHT22;22957;50.824;4.360;2023-05-27T03:34:01;10.10;99.90
2391;DHT22;22957;50.824;4.360;2023-05-27T03:36:26;10.60;99.90
2391;DHT22;22957;50.824;4.360;2023-05-27T03:38:52;10.50;99.90
2391;DHT22;22957;50.824;4.360;2023-05-27T03:41:17;11.10;99.90
2391;DHT22;22957;50.824;4.360;2023-05-27T03:43:43;10.40;99.90
2391;DHT22;22957;50.824;4.360;2023-05-27T03:46:09;10.30;99.90
2391;DHT22;22957;50.824;4.360;2023-05-27T03:48:35;10.60;99.90
2391;DHT22;22957;50.824;4.360;2023-05-27T03:51:01;10.40;99.90
2391;DHT22;22957;50.824;4.360;2023-05-27T03:53:27;11.20;99.90
2391;DHT22;22957;50.824;4.360;2023-05-27T03:55:52;10.30;99.90
2391;DHT22;22957;50.824;4.360;2023-05-27T03:58:18;10.60;99.90
2391;DHT22;22957;50.824;4.360;2023-05-27T04:00:44;11.00;99.90
2391;DHT22;22957;50.824;4.360;2023-05-27T04:03:09;10.00;99.90
2391;DHT22;22957;50.824;4.360;2023-05-27T04:05:35;10.20;99.90
2391;DHT22;22957;50.824;4.360;2023-05-27T04:08:02;9.90;99.90
2391;DHT22;22957;50.824;4.360;2023-05-27T04:10:28;9.60;99.90
2391;DHT22;22957;50.824;4.360;2023-05-27T04:12:53;9.90;99.90
2391;DHT22;22957;50.824;4.360;2023-05-27T04:15:19;9.90;99.90
2391;DHT22;22957;50.824;4.360;2023-05-27T04:17:44;9.70;99.90
2391;DHT22;22957;50.824;4.360;2023-05-27T04:20:10;9.60;99.90
2391;DHT22;22957;50.824;4.360;2023-05-27T04:22:39;9.80;99.90
2391;DHT22;22957;50.824;4.360;2023-05-27T04:25:05;9.70;99.90
2391;DHT22;22957;50.824;4.360;2023-05-27T04:27:31;9.60;99.90
2391;DHT22;22957;50.824;4.360;2023-05-27T04:29:57;10.00;99.90
2391;DHT22;22957;50.824;4.360;2023-05-27T04:32:24;10.20;99.90
2391;DHT22;22957;50.824;4.360;2023-05-27T04:34:50;10.60;99.90
2391;DHT22;22957;50.824;4.360;2023-05-27T04:37:16;11.10;99.90
2391;DHT22;22957;50.824;4.360;2023-05-27T04:39:42;10.90;99.90
2391;DHT22;22957;50.824;4.360;2023-05-27T04:42:14;10.50;99.90
2391;DHT22;22957;50.824;4.360;2023-05-27T04:44:40;10.20;99.90
2391;DHT22;22957;50.824;4.360;2023-05-27T04:47:06;10.10;99.90
2391;DHT22;22957;50.824;4.360;2023-05-27T04:49:31;10.40;99.90
2391;DHT22;22957;50.824;4.360;2023-05-27T04:51:57;11.10;99.90
2391;DHT22;22957;50.824;4.360;2023-05-27T04:54:25;10.80;99.90
2391;DHT22;22957;50.824;4.360;2023-05-27T04:56:50;11.20;99.90
2391;DHT22;22957;50.824;4.360;2023-05-27T04:59:17;11.50;99.90
2391;DHT22;22957;50.824;4.360;2023-05-27T05:01:45;11.90;99.90
2391;DHT22;22957;50.824;4.360;2023-05-27T05:04:34;11.40;99.90
2391;DHT22;22957;50.824;4.360;2023-05-27T05:06:59;10.30;99.90
2391;DHT22;22957;50.824;4.360;2023-05-27T05:09:25;10.90;99.90
2391;DHT22;22957;50.824;4.360;2023-05-27T05:11:51;12.30;99.90
2391;DHT22;22957;50.824;4.360;2023-05-27T05:14:16;11.40;99.90
2391;DHT22;22957;50.824;4.360;2023-05-27T05:16:42;11.70;99.90
2391;DHT22;22957;50.824;4.360;2023-05-27T05:19:07;11.70;99.90
2391;DHT22;22957;50.824;4.360;2023-05-27T05:21:33;12.80;99.90
2391;DHT22;22957;50.824;4.360;2023-05-27T05:23:58;12.00;99.90
2391;DHT22;22957;50.824;4.360;2023-05-27T05:26:24;13.10;99.90
2391;DHT22;22957;50.824;4.360;2023-05-27T05:28:51;11.10;99.90
2391;DHT22;22957;50.824;4.360;2023-05-27T05:31:16;11.30;99.90
2391;DHT22;22957;50.824;4.360;2023-05-27T05:33:42;12.00;99.90
2391;DHT22;22957;50.824;4.360;2023-05-27T05:36:07;11.00;99.90
2391;DHT22;22957;50.824;4.360;2023-05-27T05:38:33;11.20;99.90
2391;DHT22;22957;50.824;4.360;2023-05-27T05:40:59;11.40;99.90
2391;DHT22;22957;50.824;4.360;2023-05-27T05:43:25;12.00;99.90
2391;DHT22;22957;50.824;4.360;2023-05-27T05:45:51;11.20;99.90
2391;DHT22;22957;50.824;4.360;2023-05-27T05:48:17;11.50;99.90
2391;DHT22;22957;50.824;4.360;2023-05-27T05:50:42;11.70;99.90
2391;DHT22;22957;50.824;4.360;2023-05-27T05:53:09;11.60;99.90
2391;DHT22;22957;50.824;4.360;2023-05-27T05:55:35;11.90;99.90
2391;DHT22;22957;50.824;4.360;2023-05-27T05:58:01;11.60;99.90
2391;DHT22;22957;50.824;4.360;2023-05-27T06:00:26;11.00;99.90
2391;DHT22;22957;50.824;4.360;2023-05-27T06:02:53;11.50;99.90
2391;DHT22;22957;50.824;4.360;2023-05-27T06:05:18;11.40;99.90
2391;DHT22;22957;50.824;4.360;2023-05-27T06:07:44;11.50;99.90
2391;DHT22;22957;50.824;4.360;2023-05-27T06:10:10;11.60;99.90
2391;DHT22;22957;50.824;4.360;2023-05-27T06:12:36;12.20;99.90
2391;DHT22;22957;50.824;4.360;2023-05-27T06:15:02;12.20;99.90
2391;DHT22;22957;50.824;4.360;2023-05-27T06:17:28;12.50;99.90
2391;DHT22;22957;50.824;4.360;2023-05-27T06:19:53;13.20;99.90
2391;DHT22;22957;50.824;4.360;2023-05-27T06:22:19;14.30;99.90
2391;DHT22;22957;50.824;4.360;2023-05-27T06:24:44;12.70;99.90
2391;DHT22;22957;50.824;4.360;2023-05-27T06:27:10;13.60;99.90
2391;DHT22;22957;50.824;4.360;2023-05-27T06:29:35;12.30;99.90
2391;DHT22;22957;50.824;4.360;2023-05-27T06:32:01;12.50;99.90
2391;DHT22;22957;50.824;4.360;2023-05-27T06:34:26;11.80;99.90
2391;DHT22;22957;50.824;4.360;2023-05-27T06:36:52;12.00;99.90
2391;DHT22;22957;50.824;4.360;2023-05-27T06:39:18;11.90;99.90
2391;DHT22;22957;50.824;4.360;2023-05-27T06:41:43;11.80;99.90
2391;DHT22;22957;50.824;4.360;2023-05-27T06:44:09;12.50;99.90
2391;DHT22;22957;50.824;4.360;2023-05-27T06:46:34;12.40;99.90
2391;DHT22;22957;50.824;4.360;2023-05-27T06:49:00;12.70;99.90
2391;DHT22;22957;50.824;4.360;2023-05-27T06:51:25;13.60;99.90
2391;DHT22;22957;50.824;4.360;2023-05-27T06:53:52;13.00;99.90
2391;DHT22;22957;50.824;4.360;2023-05-27T06:56:18;13.10;99.90
2391;DHT22;22957;50.824;4.360;2023-05-27T06:58:45;14.40;99.90
2391;DHT22;22957;50.824;4.360;2023-05-27T07:01:11;14.40;99.90
2391;DHT22;22957;50.824;4.360;2023-05-27T07:03:37;15.10;99.90
2391;DHT22;22957;50.824;4.360;2023-05-27T07:06:02;14.00;99.90
2391;DHT22;22957;50.824;4.360;2023-05-27T07:08:28;13.40;99.90
2391;DHT22;22957;50.824;4.360;2023-05-27T07:10:54;13.90;99.90
2391;DHT22;22957;50.824;4.360;2023-05-27T07:13:19;13.90;99.90
2391;DHT22;22957;50.824;4.360;2023-05-27T07:15:45;14.30;99.90
2391;DHT22;22957;50.824;4.360;2023-05-27T07:18:10;14.70;99.90
2391;DHT22;22957;50.824;4.360;2023-05-27T07:20:36;16.10;99.90
2391;DHT22;22957;50.824;4.360;2023-05-27T07:23:01;14.60;99.90
2391;DHT22;22957;50.824;4.360;2023-05-27T07:25:27;15.30;99.90
2391;DHT22;22957;50.824;4.360;2023-05-27T07:27:52;16.40;99.90
2391;DHT22;22957;50.824;4.360;2023-05-27T07:30:18;16.60;99.90
2391;DHT22;22957;50.824;4.360;2023-05-27T07:32:45;15.80;99.90
2391;DHT22;22957;50.824;4.360;2023-05-27T07:35:11;14.70;99.90
2391;DHT22;22957;50.824;4.360;2023-05-27T07:37:36;17.10;99.90
2391;DHT22;22957;50.824;4.360;2023-05-27T07:40:02;15.90;99.90
2391;DHT22;22957;50.824;4.360;2023-05-27T07:42:29;17.60;99.90
2391;DHT22;22957;50.824;4.360;2023-05-27T07:44:54;15.60;99.90
2391;DHT22;22957;50.824;4.360;2023-05-27T07:47:20;18.30;99.90
2391;DHT22;22957;50.824;4.360;2023-05-27T07:49:46;16.90;99.90
2391;DHT22;22957;50.824;4.360;2023-05-27T07:52:12;19.20;99.90
2391;DHT22;22957;50.824;4.360;2023-05-27T07:54:37;17.00;99.90
2391;DHT22;22957;50.824;4.360;2023-05-27T07:57:03;15.70;99.90
2391;DHT22;22957;50.824;4.360;2023-05-27T07:59:29;17.90;99.90
2391;DHT22;22957;50.824;4.360;2023-05-27T08:01:55;19.30;99.90
2391;DHT22;22957;50.824;4.360;2023-05-27T08:04:21;19.20;99.90
2391;DHT22;22957;50.824;4.360;2023-05-27T08:06:46;18.00;99.90
2391;DHT22;22957;50.824;4.360;2023-05-27T08:09:12;19.60;99.90
2391;DHT22;22957;50.824;4.360;2023-05-27T08:11:37;16.40;99.90
2391;DHT22;22957;50.824;4.360;2023-05-27T08:14:03;15.50;99.90
2391;DHT22;22957;50.824;4.360;2023-05-27T08:16:28;16.70;99.90
2391;DHT22;22957;50.824;4.360;2023-05-27T08:18:54;16.50;99.90
2391;DHT22;22957;50.824;4.360;2023-05-27T08:21:19;16.80;99.90
2391;DHT22;22957;50.824;4.360;2023-05-27T08:23:45;20.80;99.90
2391;DHT22;22957;50.824;4.360;2023-05-27T08:26:10;16.50;99.90
2391;DHT22;22957;50.824;4.360;2023-05-27T08:28:36;16.10;99.90
2391;DHT22;22957;50.824;4.360;2023-05-27T08:31:03;17.90;99.90
2391;DHT22;22957;50.824;4.360;2023-05-27T08:33:28;17.50;99.90
2391;DHT22;22957;50.824;4.360;2023-05-27T08:35:56;17.40;99.90
2391;DHT22;22957;50.824;4.360;2023-05-27T08:38:21;16.00;99.90
2391;DHT22;22957;50.824;4.360;2023-05-27T08:40:47;17.30;99.90
2391;DHT22;22957;50.824;4.360;2023-05-27T08:43:13;19.10;99.90
2391;DHT22;22957;50.824;4.360;2023-05-27T08:45:40;19.40;99.90
2391;DHT22;22957;50.824;4.360;2023-05-27T08:48:09;18.90;99.90
2391;DHT22;22957;50.824;4.360;2023-05-27T08:50:36;16.50;99.90
2391;DHT22;22957;50.824;4.360;2023-05-27T08:53:02;16.50;99.90
2391;DHT22;22957;50.824;4.360;2023-05-27T08:55:29;16.20;99.90
2391;DHT22;22957;50.824;4.360;2023-05-27T08:57:57;16.70;99.90
2391;DHT22;22957;50.824;4.360;2023-05-27T09:00:25;17.60;99.90
2391;DHT22;22957;50.824;4.360;2023-05-27T09:02:51;17.30;99.90
2391;DHT22;22957;50.824;4.360;2023-05-27T09:05:17;20.10;99.90
2391;DHT22;22957;50.824;4.360;2023-05-27T09:07:44;20.80;99.90
2391;DHT22;22957;50.824;4.360;2023-05-27T09:10:10;20.80;99.90
2391;DHT22;22957;50.824;4.360;2023-05-27T09:12:36;21.10;99.90
2391;DHT22;22957;50.824;4.360;2023-05-27T09:15:05;20.30;99.90
2391;DHT22;22957;50.824;4.360;2023-05-27T09:17:31;21.20;99.90
2391;DHT22;22957;50.824;4.360;2023-05-27T09:19:56;20.10;99.90
2391;DHT22;22957;50.824;4.360;2023-05-27T09:22:24;22.70;99.90
2391;DHT22;22957;50.824;4.360;2023-05-27T09:24:52;22.10;99.30
2391;DHT22;22957;50.824;4.360;2023-05-27T09:27:19;19.40;99.90
2391;DHT22;22957;50.824;4.360;2023-05-27T09:29:48;18.00;99.90
2391;DHT22;22957;50.824;4.360;2023-05-27T09:32:26;18.40;99.90
2391;DHT22;22957;50.824;4.360;2023-05-27T09:34:55;18.90;99.90
2391;DHT22;22957;50.824;4.360;2023-05-27T09:37:28;21.10;99.90
2391;DHT22;22957;50.824;4.360;2023-05-27T09:39:58;19.90;99.90
2391;DHT22;22957;50.824;4.360;2023-05-27T09:42:24;19.80;99.90
2391;DHT22;22957;50.824;4.360;2023-05-27T09:44:50;20.10;99.90
2391;DHT22;22957;50.824;4.360;2023-05-27T09:47:17;18.90;99.90
2391;DHT22;22957;50.824;4.360;2023-05-27T09:49:44;18.70;99.90
2391;DHT22;22957;50.824;4.360;2023-05-27T09:52:11;19.70;99.90
2391;DHT22;22957;50.824;4.360;2023-05-27T09:54:37;21.60;99.90
2391;DHT22;22957;50.824;4.360;2023-05-27T09:57:04;19.30;99.90
2391;DHT22;22957;50.824;4.360;2023-05-27T09:59:32;20.70;99.90
2391;DHT22;22957;50.824;4.360;2023-05-27T10:02:00;20.10;99.90
2391;DHT22;22957;50.824;4.360;2023-05-27T10:04:28;22.20;99.90
2391;DHT22;22957;50.824;4.360;2023-05-27T10:06:55;21.80;99.20
2391;DHT22;22957;50.824;4.360;2023-05-27T10:09:20;23.60;98.80
2391;DHT22;22957;50.824;4.360;2023-05-27T10:11:46;21.20;98.20
2391;DHT22;22957;50.824;4.360;2023-05-27T10:14:12;23.00;99.20
2391;DHT22;22957;50.824;4.360;2023-05-27T10:16:38;25.00;96.70
2391;DHT22;22957;50.824;4.360;2023-05-27T10:19:09;24.80;95.60
2391;DHT22;22957;50.824;4.360;2023-05-27T10:21:42;25.20;95.40
2391;DHT22;22957;50.824;4.360;2023-05-27T10:24:10;24.40;95.60
2391;DHT22;22957;50.824;4.360;2023-05-27T10:26:41;24.80;95.20
2391;DHT22;22957;50.824;4.360;2023-05-27T10:29:12;25.90;93.70
2391;DHT22;22957;50.824;4.360;2023-05-27T10:31:51;26.20;91.60
2391;DHT22;22957;50.824;4.360;2023-05-27T10:34:17;26.00;92.20
2391;DHT22;22957;50.824;4.360;2023-05-27T10:36:44;23.20;92.30
2391;DHT22;22957;50.824;4.360;2023-05-27T10:39:17;24.00;93.70
2391;DHT22;22957;50.824;4.360;2023-05-27T10:41:51;22.10;95.20
2391;DHT22;22957;50.824;4.360;2023-05-27T10:44:26;21.30;95.70
2391;DHT22;22957;50.824;4.360;2023-05-27T10:47:03;21.60;97.00
2391;DHT22;22957;50.824;4.360;2023-05-27T10:49:33;22.00;95.90
2391;DHT22;22957;50.824;4.360;2023-05-27T10:52:10;20.00;97.20
2391;DHT22;22957;50.824;4.360;2023-05-27T10:54:38;20.60;99.00
2391;DHT22;22957;50.824;4.360;2023-05-27T10:57:04;22.40;96.60
2391;DHT22;22957;50.824;4.360;2023-05-27T10:59:40;21.80;97.20
2391;DHT22;22957;50.824;4.360;2023-05-27T11:02:11;23.20;96.10
2391;DHT22;22957;50.824;4.360;2023-05-27T11:04:37;21.80;95.10
2391;DHT22;22957;50.824;4.360;2023-05-27T11:07:04;21.40;96.30
2391;DHT22;22957;50.824;4.360;2023-05-27T11:09:51;22.70;95.30
2391;DHT22;22957;50.824;4.360;2023-05-27T11:12:23;20.90;96.30
2391;DHT22;22957;50.824;4.360;2023-05-27T11:14:53;21.10;96.90
2391;DHT22;22957;50.824;4.360;2023-05-27T11:17:19;21.50;96.00
2391;DHT22;22957;50.824;4.360;2023-05-27T11:19:45;22.50;95.00
2391;DHT22;22957;50.824;4.360;2023-05-27T11:22:12;21.80;95.30
2391;DHT22;22957;50.824;4.360;2023-05-27T11:24:38;22.60;94.90
2391;DHT22;22957;50.824;4.360;2023-05-27T11:27:13;23.50;94.60
2391;DHT22;22957;50.824;4.360;2023-05-27T11:29:48;20.80;95.60
2391;DHT22;22957;50.824;4.360;2023-05-27T11:32:16;20.00;97.20
2391;DHT22;22957;50.824;4.360;2023-05-27T11:34:43;21.40;97.40
2391;DHT22;22957;50.824;4.360;2023-05-27T11:37:10;23.50;94.60
2391;DHT22;22957;50.824;4.360;2023-05-27T11:39:36;23.80;93.30
2391;DHT22;22957;50.824;4.360;2023-05-27T11:42:05;22.40;93.20
2391;DHT22;22957;50.824;4.360;2023-05-27T11:44:31;23.70;92.60
2391;DHT22;22957;50.824;4.360;2023-05-27T11:47:01;22.40;92.80
2391;DHT22;22957;50.824;4.360;2023-05-27T11:49:27;21.70;93.70
2391;DHT22;22957;50.824;4.360;2023-05-27T11:51:55;22.80;93.00
2391;DHT22;22957;50.824;4.360;2023-05-27T11:54:30;22.40;93.60
2391;DHT22;22957;50.824;4.360;2023-05-27T11:56:58;22.10;92.10
2391;DHT22;22957;50.824;4.360;2023-05-27T11:59:25;21.30;92.70
2391;DHT22;22957;50.824;4.360;2023-05-27T12:01:51;22.20;92.50
2391;DHT22;22957;50.824;4.360;2023-05-27T12:04:19;24.60;91.70
2391;DHT22;22957;50.824;4.360;2023-05-27T12:06:45;23.00;90.40
2391;DHT22;22957;50.824;4.360;2023-05-27T12:09:11;24.80;90.20
2391;DHT22;22957;50.824;4.360;2023-05-27T12:11:37;23.50;89.40
2391;DHT22;22957;50.824;4.360;2023-05-27T12:14:04;23.70;90.70
2391;DHT22;22957;50.824;4.360;2023-05-27T12:16:30;24.60;90.00
2391;DHT22;22957;50.824;4.360;2023-05-27T12:18:57;24.50;88.70
2391;DHT22;22957;50.824;4.360;2023-05-27T12:21:22;25.40;86.60
2391;DHT22;22957;50.824;4.360;2023-05-27T12:23:48;23.40;86.40
2391;DHT22;22957;50.824;4.360;2023-05-27T12:26:14;23.20;90.00
2391;DHT22;22957;50.824;4.360;2023-05-27T12:28:40;22.90;87.40
2391;DHT22;22957;50.824;4.360;2023-05-27T12:31:06;25.10;87.50
2391;DHT22;22957;50.824;4.360;2023-05-27T12:33:32;25.10;85.30
2391;DHT22;22957;50.824;4.360;2023-05-27T12:35:58;24.20;87.10
2391;DHT22;22957;50.824;4.360;2023-05-27T12:38:24;24.30;86.20
2391;DHT22;22957;50.824;4.360;2023-05-27T12:40:50;24.50;85.90
2391;DHT22;22957;50.824;4.360;2023-05-27T12:43:17;23.30;85.20
2391;DHT22;22957;50.824;4.360;2023-05-27T12:45:43;23.30;87.40
2391;DHT22;22957;50.824;4.360;2023-05-27T12:48:11;22.30;86.70
2391;DHT22;22957;50.824;4.360;2023-05-27T12:50:36;21.50;89.90
2391;DHT22;22957;50.824;4.360;2023-05-27T12:53:02;22.40;88.80
2391;DHT22;22957;50.824;4.360;2023-05-27T12:55:28;23.00;86.00
2391;DHT22;22957;50.824;4.360;2023-05-27T12:57:54;23.70;88.10
2391;DHT22;22957;50.824;4.360;2023-05-27T13:00:20;23.40;87.70
2391;DHT22;22957;50.824;4.360;2023-05-27T13:02:47;23.30;88.50
2391;DHT22;22957;50.824;4.360;2023-05-27T13:05:13;22.80;87.10
2391;DHT22;22957;50.824;4.360;2023-05-27T13:07:39;23.40;87.30
2391;DHT22;22957;50.824;4.360;2023-05-27T13:10:11;22.40;86.40
2391;DHT22;22957;50.824;4.360;2023-05-27T13:12:43;22.50;87.80
2391;DHT22;22957;50.824;4.360;2023-05-27T13:15:09;23.60;85.80
2391;DHT22;22957;50.824;4.360;2023-05-27T13:17:35;23.80;87.10
2391;DHT22;22957;50.824;4.360;2023-05-27T13:20:01;23.40;85.80
2391;DHT22;22957;50.824;4.360;2023-05-27T13:22:27;22.60;85.20
2391;DHT22;22957;50.824;4.360;2023-05-27T13:24:53;23.40;86.60
2391;DHT22;22957;50.824;4.360;2023-05-27T13:27:19;22.80;84.60
2391;DHT22;22957;50.824;4.360;2023-05-27T13:29:45;21.90;86.80
2391;DHT22;22957;50.824;4.360;2023-05-27T13:32:11;22.90;86.70
2391;DHT22;22957;50.824;4.360;2023-05-27T13:34:36;23.60;85.50
2391;DHT22;22957;50.824;4.360;2023-05-27T13:37:02;22.30;85.90
2391;DHT22;22957;50.824;4.360;2023-05-27T13:39:28;22.90;85.80
2391;DHT22;22957;50.824;4.360;2023-05-27T13:41:55;23.20;83.90
2391;DHT22;22957;50.824;4.360;2023-05-27T13:44:20;25.00;83.90
2391;DHT22;22957;50.824;4.360;2023-05-27T13:46:46;23.80;80.40
2391;DHT22;22957;50.824;4.360;2023-05-27T13:49:11;22.10;84.00
2391;DHT22;22957;50.824;4.360;2023-05-27T13:51:44;22.30;86.10
2391;DHT22;22957;50.824;4.360;2023-05-27T13:54:10;23.00;84.10
2391;DHT22;22957;50.824;4.360;2023-05-27T13:56:36;22.80;85.40
2391;DHT22;22957;50.824;4.360;2023-05-27T13:59:02;23.60;81.30
2391;DHT22;22957;50.824;4.360;2023-05-27T14:01:31;22.90;82.30
2391;DHT22;22957;50.824;4.360;2023-05-27T14:03:58;23.30;84.50
2391;DHT22;22957;50.824;4.360;2023-05-27T14:06:23;22.00;83.40
2391;DHT22;22957;50.824;4.360;2023-05-27T14:08:49;22.50;86.70
2391;DHT22;22957;50.824;4.360;2023-05-27T14:11:15;24.10;83.60
2391;DHT22;22957;50.824;4.360;2023-05-27T14:13:41;22.60;83.30
2391;DHT22;22957;50.824;4.360;2023-05-27T14:16:07;22.70;82.10
2391;DHT22;22957;50.824;4.360;2023-05-27T14:18:32;23.00;82.80
2391;DHT22;22957;50.824;4.360;2023-05-27T14:20:59;23.30;84.30
2391;DHT22;22957;50.824;4.360;2023-05-27T14:23:24;23.00;83.00
2391;DHT22;22957;50.824;4.360;2023-05-27T14:25:50;23.10;83.70
2391;DHT22;22957;50.824;4.360;2023-05-27T14:28:16;23.30;83.30
2391;DHT22;22957;50.824;4.360;2023-05-27T14:30:41;23.20;84.70
2391;DHT22;22957;50.824;4.360;2023-05-27T14:33:07;23.20;84.60
2391;DHT22;22957;50.824;4.360;2023-05-27T14:35:34;22.50;84.20
2391;DHT22;22957;50.824;4.360;2023-05-27T14:38:01;22.60;82.70
2391;DHT22;22957;50.824;4.360;2023-05-27T14:40:27;23.00;82.30
2391;DHT22;22957;50.824;4.360;2023-05-27T14:42:53;23.10;81.60
2391;DHT22;22957;50.824;4.360;2023-05-27T14:45:18;22.20;80.60
2391;DHT22;22957;50.824;4.360;2023-05-27T14:47:46;22.60;83.40
2391;DHT22;22957;50.824;4.360;2023-05-27T14:50:12;23.20;79.80
2391;DHT22;22957;50.824;4.360;2023-05-27T14:52:37;23.10;79.80
2391;DHT22;22957;50.824;4.360;2023-05-27T14:55:04;24.00;79.50
2391;DHT22;22957;50.824;4.360;2023-05-27T14:57:29;25.10;79.20
2391;DHT22;22957;50.824;4.360;2023-05-27T14:59:59;25.10;77.80
2391;DHT22;22957;50.824;4.360;2023-05-27T15:02:25;25.30;79.20
2391;DHT22;22957;50.824;4.360;2023-05-27T15:04:51;23.00;81.20
2391;DHT22;22957;50.824;4.360;2023-05-27T15:07:16;23.30;83.90
2391;DHT22;22957;50.824;4.360;2023-05-27T15:09:47;22.30;83.80
2391;DHT22;22957;50.824;4.360;2023-05-27T15:12:13;22.40;84.80
2391;DHT22;22957;50.824;4.360;2023-05-27T15:14:39;23.00;85.00
2391;DHT22;22957;50.824;4.360;2023-05-27T15:17:04;23.20;85.20
2391;DHT22;22957;50.824;4.360;2023-05-27T15:19:30;22.90;84.00
2391;DHT22;22957;50.824;4.360;2023-05-27T15:21:56;22.50;85.20
2391;DHT22;22957;50.824;4.360;2023-05-27T15:24:21;23.00;84.60
2391;DHT22;22957;50.824;4.360;2023-05-27T15:26:47;22.90;83.60
2391;DHT22;22957;50.824;4.360;2023-05-27T15:29:12;23.80;82.80
2391;DHT22;22957;50.824;4.360;2023-05-27T15:31:38;24.40;79.50
2391;DHT22;22957;50.824;4.360;2023-05-27T15:34:03;24.50;79.10
2391;DHT22;22957;50.824;4.360;2023-05-27T15:36:29;24.40;79.50
2391;DHT22;22957;50.824;4.360;2023-05-27T15:38:56;22.80;81.30
2391;DHT22;22957;50.824;4.360;2023-05-27T15:41:22;23.00;79.80
2391;DHT22;22957;50.824;4.360;2023-05-27T15:43:47;23.20;80.40
2391;DHT22;22957;50.824;4.360;2023-05-27T15:46:13;23.50;80.80
2391;DHT22;22957;50.824;4.360;2023-05-27T15:48:39;23.30;79.60